Time;durP1;ratioP1;P1;durP2;ratioP2;P2;SDS_P1;SDS_P2;PMS_P1;PMS_P2;Temp;Humidity;BMP_temperature;BMP_pressure;BME280_temperature;BME280_humidity;BME280_pressure;Samples;Min_cycle;Max_cycle;Signal;HPM_P1;HPM_P2
2023/03/04 00:01:07;;;;;;;10.05;3.08;;;;;;;-148.88;82.17;77209.50;5048101;28;20399;-80
2023/03/04 00:03:32;;;;;;;12.38;2.40;;;;;;;-148.88;81.69;77185.09;5060321;28;20025;-80
2023/03/04 00:05:58;;;;;;;19.45;2.92;;;;;;;-148.88;81.92;77201.34;5058403;28;20051;-79
2023/03/04 00:08:23;;;;;;;17.80;3.63;;;;;;;-148.88;82.18;77191.19;5059839;28;20029;-80
2023/03/04 00:10:48;;;;;;;14.80;3.28;;;;;;;-148.88;81.53;77191.19;5061550;28;20043;-80
2023/03/04 00:16:35;;;;;;;12.68;2.78;;;;;;;-148.88;82.32;77209.50;5062751;28;20402;-80
2023/03/04 00:19:01;;;;;;;14.77;2.78;;;;;;;-148.88;81.90;77199.31;5064749;28;20412;-80
2023/03/04 00:21:26;;;;;;;13.30;3.58;;;;;;;-148.88;81.65;77172.91;5047610;28;20035;-79
2023/03/04 00:23:51;;;;;;;17.55;4.07;;;;;;;-148.88;81.92;77179.00;5047700;28;20111;-80
2023/03/04 00:26:18;;;;;;;12.30;2.90;;;;;;;-148.88;81.54;77164.78;5047651;28;20025;-81
2023/03/04 00:28:43;;;;;;;14.45;3.15;;;;;;;-148.88;82.08;77183.06;5065415;28;20021;-80
2023/03/04 00:31:09;;;;;;;13.90;3.45;;;;;;;-148.88;82.33;77179.00;5065251;28;20028;-81
2023/03/04 00:33:35;;;;;;;9.65;2.90;;;;;;;-148.88;82.68;77179.00;5047868;28;20044;-81
2023/03/04 00:36:01;;;;;;;17.67;3.42;;;;;;;-148.88;82.89;77185.09;5064921;28;20036;-79
2023/03/04 00:38:27;;;;;;;20.42;4.03;;;;;;;-148.88;82.46;77164.78;5046871;28;20032;-81
2023/03/04 00:40:52;;;;;;;12.48;2.20;;;;;;;-148.88;83.37;77195.25;5056663;28;20086;-80
2023/03/04 00:43:18;;;;;;;17.77;2.85;;;;;;;-148.88;83.13;77176.97;5058457;28;20021;-79
2023/03/04 00:45:43;;;;;;;13.02;3.00;;;;;;;-148.88;82.53;77166.81;5043490;28;20424;-79
2023/03/04 00:48:09;;;;;;;12.55;3.08;;;;;;;-148.88;82.91;77183.06;5062281;28;20029;-80
2023/03/04 00:50:34;;;;;;;19.13;3.83;;;;;;;-148.88;82.76;77176.97;5049917;28;20021;-79
2023/03/04 00:53:00;;;;;;;9.95;3.20;;;;;;;-148.88;83.45;77195.25;5068826;28;20036;-79
2023/03/04 00:55:26;;;;;;;16.83;2.72;;;;;;;-148.88;83.65;77203.41;5069351;28;20021;-81
2023/03/04 00:57:51;;;;;;;18.08;2.90;;;;;;;-148.88;84.07;77203.41;5067051;28;20070;-80
2023/03/04 01:00:17;;;;;;;15.15;2.67;;;;;;;-148.88;84.29;77209.50;5050702;28;20085;-80
2023/03/04 01:02:42;;;;;;;19.95;2.58;;;;;;;-148.88;83.78;77203.41;5068541;28;20036;-80
2023/03/04 01:05:08;;;;;;;8.70;2.30;;;;;;;-148.88;83.33;77179.00;5049005;28;20055;-81
2023/03/04 01:07:33;;;;;;;13.27;2.83;;;;;;;-148.88;83.55;77162.75;5066176;28;20071;-81
2023/03/04 01:09:58;;;;;;;13.30;2.40;;;;;;;-148.88;83.33;77207.47;5048465;28;20025;-80
2023/03/04 01:12:24;;;;;;;15.60;2.58;;;;;;;-148.88;84.46;77195.25;5048299;28;20048;-81
2023/03/04 01:14:49;;;;;;;8.07;3.10;;;;;;;-148.88;83.42;77183.06;5065847;28;20021;-80
2023/03/04 01:17:14;;;;;;;19.85;2.35;;;;;;;-148.88;83.94;77191.19;5057760;28;20035;-80
2023/03/04 01:19:40;;;;;;;14.25;2.35;;;;;;;-148.88;83.51;77174.94;5046685;28;20029;-80
2023/03/04 01:22:05;;;;;;;9.25;2.17;;;;;;;-148.88;82.94;77158.69;5064107;28;20025;-80
2023/03/04 01:24:33;;;;;;;15.45;2.80;;;;;;;-148.88;83.73;77168.84;5047177;28;20078;-80
2023/03/04 01:26:58;;;;;;;13.57;2.63;;;;;;;-148.88;83.27;77168.84;5064245;28;20024;-81
2023/03/04 01:29:23;;;;;;;16.40;2.70;;;;;;;-148.88;82.70;77134.31;5065055;28;20028;-80
2023/03/04 01:31:48;;;;;;;13.20;2.00;;;;;;;-148.88;82.20;77122.13;5065149;28;20445;-80
2023/03/04 01:34:14;;;;;;;15.70;2.55;;;;;;;-148.88;81.85;77118.06;5064747;28;20033;-81
2023/03/04 01:36:39;;;;;;;7.55;1.75;;;;;;;-148.88;82.12;77116.03;5064912;28;20033;-81
2023/03/04 01:39:04;;;;;;;15.95;2.70;;;;;;;-148.88;82.32;77126.19;5065045;28;20032;-81
2023/03/04 01:41:30;;;;;;;10.27;2.28;;;;;;;-148.88;82.53;77109.94;5064024;28;20029;-81
2023/03/04 01:43:59;;;;;;;11.70;2.47;;;;;;;-148.88;82.18;77099.75;5046881;28;20032;-81
2023/03/04 01:46:25;;;;;;;8.38;1.98;;;;;;;-148.88;82.45;77111.97;5045518;28;20036;-81
2023/03/04 01:48:50;;;;;;;11.20;2.15;;;;;;;-148.88;83.16;77122.13;5064728;28;20021;-80
2023/03/04 01:51:17;;;;;;;10.15;1.75;;;;;;;-148.88;82.69;77116.03;5063785;28;20056;-81
2023/03/04 01:53:45;;;;;;;9.45;2.05;;;;;;;-148.88;83.77;77154.63;5037348;28;20483;-79
2023/03/04 01:56:51;;;;;;;9.93;2.50;;;;;;;-148.88;83.94;77154.63;5038187;28;20475;-79
2023/03/04 01:59:19;;;;;;;11.77;2.10;;;;;;;-148.88;83.04;77109.94;4982548;28;20033;-80
2023/03/04 02:01:48;;;;;;;7.43;2.03;;;;;;;-148.88;82.63;77089.59;4984237;28;20129;-80
2023/03/04 02:04:15;;;;;;;10.82;2.25;;;;;;;-148.88;83.00;77099.75;5034489;28;20047;-81
2023/03/04 02:06:42;;;;;;;12.00;2.08;;;;;;;-148.88;83.16;77097.72;5064018;28;20024;-81
2023/03/04 02:09:08;;;;;;;13.48;2.47;;;;;;;-148.88;82.57;77089.59;5064915;28;20066;-81
2023/03/04 02:11:36;;;;;;;19.38;2.17;;;;;;;-148.88;83.06;77089.59;5064171;28;20056;-81
2023/03/04 02:14:02;;;;;;;13.80;2.95;;;;;;;-148.88;83.66;77122.13;5046944;28;20024;-81
2023/03/04 02:16:27;;;;;;;10.35;1.80;;;;;;;-148.88;83.01;77105.84;5046537;28;20028;-82
2023/03/04 02:18:53;;;;;;;8.23;1.65;;;;;;;-148.88;83.25;77118.06;5046483;28;20021;-82
2023/03/04 02:21:18;;;;;;;20.83;2.20;;;;;;;-148.88;82.59;77109.94;5064291;28;20033;-80
2023/03/04 02:24:14;;;;;;;14.82;2.42;;;;;;;-148.88;83.35;77111.97;5064135;28;20083;-81
2023/03/04 02:26:42;;;;;;;12.57;1.95;;;;;;;-148.88;82.67;77109.94;5063841;28;20021;-81
2023/03/04 02:29:10;;;;;;;15.60;2.03;;;;;;;-148.88;81.66;77083.50;5060898;28;20043;-81
2023/03/04 02:31:40;;;;;;;12.38;2.47;;;;;;;-148.88;81.92;77085.53;5055821;28;20071;-81
2023/03/04 02:34:10;;;;;;;8.10;1.98;;;;;;;-148.88;84.02;77109.94;5040235;28;20020;-80
2023/03/04 02:36:36;;;;;;;6.53;1.77;;;;;;;-148.88;82.72;77093.66;5060236;28;20025;-81
2023/03/04 02:39:06;;;;;;;9.68;1.75;;;;;;;-148.88;82.43;77091.63;5064441;28;20056;-81
2023/03/04 02:41:32;;;;;;;11.13;1.95;;;;;;;-148.88;82.71;77093.66;5062500;28;20033;-80
2023/03/04 02:43:57;;;;;;;13.10;3.45;;;;;;;-148.88;82.52;77085.53;5045718;28;20517;-81
2023/03/04 02:46:23;;;;;;;11.75;1.92;;;;;;;-148.88;82.17;77057.09;5045952;28;20028;-81
2023/03/04 02:48:49;;;;;;;8.52;2.00;;;;;;;-148.88;80.39;77024.59;5045796;28;20029;-81
2023/03/04 02:51:15;;;;;;;7.03;1.67;;;;;;;-148.88;80.09;77026.63;5045526;28;20052;-80
2023/03/04 02:53:40;;;;;;;7.75;1.98;;;;;;;-148.88;80.77;77038.81;5046680;28;20033;-80
2023/03/04 02:56:06;;;;;;;11.93;1.98;;;;;;;-148.88;79.91;76992.06;5064082;28;20088;-80
2023/03/04 02:58:31;;;;;;;13.15;1.75;;;;;;;-148.88;79.73;76990.03;5044720;28;20021;-81
2023/03/04 03:00:56;;;;;;;15.30;2.13;;;;;;;-148.88;80.44;77000.19;5062694;28;20375;-81
2023/03/04 03:03:22;;;;;;;14.02;1.95;;;;;;;-148.88;81.34;77048.97;5044481;28;20035;-81
2023/03/04 03:05:47;;;;;;;14.13;2.80;;;;;;;-148.88;81.97;77071.31;5041265;28;20049;-80
2023/03/04 03:08:12;;;;;;;7.93;1.98;;;;;;;-148.88;82.44;77077.41;5056368;28;20018;-80
2023/03/04 03:10:38;;;;;;;11.20;1.67;;;;;;;-148.88;82.22;77051.00;5057007;28;20047;-80
2023/03/04 03:13:03;;;;;;;10.90;1.83;;;;;;;-148.88;81.75;77048.97;5040633;28;20028;-80
2023/03/04 03:15:28;;;;;;;9.50;2.22;;;;;;;-148.88;79.88;76979.88;5042259;28;20400;-81
2023/03/04 03:17:54;;;;;;;12.93;1.85;;;;;;;-148.88;81.47;77069.28;5044748;28;20032;-81
2023/03/04 03:20:19;;;;;;;9.95;2.42;;;;;;;-148.88;81.11;77040.84;5044073;28;20022;-81
2023/03/04 03:22:45;;;;;;;11.52;1.60;;;;;;;-148.88;81.74;77065.22;5063046;28;20028;-81
2023/03/04 03:25:15;;;;;;;7.70;1.40;;;;;;;-148.88;82.17;77055.06;5063144;28;20436;-81
2023/03/04 03:27:40;;;;;;;9.93;1.48;;;;;;;-148.88;81.96;77085.53;5045144;28;20474;-81
2023/03/04 03:30:09;;;;;;;13.40;1.90;;;;;;;-148.88;81.95;77081.47;5048177;28;20017;-81
2023/03/04 03:32:34;;;;;;;13.13;2.05;;;;;;;-148.88;81.01;77044.91;5066512;28;20025;-81
2023/03/04 03:34:59;;;;;;;6.82;1.48;;;;;;;-148.88;80.78;77040.84;5048644;28;20064;-81
2023/03/04 03:37:24;;;;;;;11.20;1.92;;;;;;;-148.88;80.94;77057.09;5067234;28;20021;-81
2023/03/04 03:39:50;;;;;;;8.40;1.60;;;;;;;-148.88;80.59;77040.84;5066097;28;20021;-80
2023/03/04 03:42:15;;;;;;;11.88;1.60;;;;;;;-148.88;80.76;77020.53;5063606;28;20106;-80
2023/03/04 03:44:40;;;;;;;5.57;1.42;;;;;;;-148.88;81.54;77057.09;5058468;28;20117;-80
2023/03/04 03:47:05;;;;;;;10.32;1.60;;;;;;;-148.88;82.19;77061.16;5059523;28;20480;-80
2023/03/04 03:49:31;;;;;;;9.32;2.00;;;;;;;-148.88;82.94;77077.41;5043206;28;20029;-80
2023/03/04 03:51:56;;;;;;;6.63;1.35;;;;;;;-148.88;82.94;77071.31;5045167;28;20029;-81
2023/03/04 03:54:21;;;;;;;13.70;2.75;;;;;;;-148.88;82.88;77065.22;5047568;28;20021;-80
2023/03/04 03:56:47;;;;;;;11.05;1.38;;;;;;;-148.88;83.55;77081.47;5050795;28;20036;-81
2023/03/04 03:59:12;;;;;;;7.85;1.90;;;;;;;-148.88;83.14;77048.97;5050001;28;20024;-81
2023/03/04 04:01:37;;;;;;;9.77;1.70;;;;;;;-148.88;83.39;77065.22;5046405;28;20032;-82
2023/03/04 04:04:03;;;;;;;8.38;1.60;;;;;;;-148.88;83.61;77036.78;5046097;28;20021;-81
2023/03/04 04:06:28;;;;;;;12.70;1.35;;;;;;;-148.88;83.55;77046.94;5071889;28;20116;-79
2023/03/04 04:08:53;;;;;;;6.82;1.55;;;;;;;-148.88;83.47;77032.72;5074003;28;20071;-80
2023/03/04 04:11:19;;;;;;;8.30;1.50;;;;;;;-148.88;83.34;77032.72;5074440;28;20067;-81
2023/03/04 04:13:44;;;;;;;6.20;1.88;;;;;;;-148.88;83.05;77026.63;5069059;28;20082;-82
2023/03/04 04:16:10;;;;;;;10.75;1.70;;;;;;;-148.88;81.93;76985.97;5068478;28;20430;-81
2023/03/04 04:18:36;;;;;;;11.52;2.30;;;;;;;-148.88;82.18;77024.59;5047921;28;20031;-80
2023/03/04 04:21:01;;;;;;;5.30;1.48;;;;;;;-148.88;82.21;76996.13;5058733;28;20051;-80
2023/03/04 04:23:27;;;;;;;9.95;1.85;;;;;;;-148.88;82.65;77020.53;5044526;28;20071;-80
2023/03/04 04:25:56;;;;;;;6.70;1.42;;;;;;;-148.88;81.90;76975.81;5047732;28;20021;-81
2023/03/04 04:28:22;;;;;;;8.45;1.55;;;;;;;-148.88;81.53;76979.88;5067367;28;20029;-81
2023/03/04 04:30:47;;;;;;;8.57;1.40;;;;;;;-148.88;83.78;77051.00;5066296;28;20114;-81
2023/03/04 04:33:13;;;;;;;9.15;1.60;;;;;;;-148.88;84.91;77032.72;5066287;28;20072;-82
2023/03/04 04:35:38;;;;;;;7.25;1.30;;;;;;;-148.88;86.13;77040.84;5083049;22;20123;-79
2023/03/04 04:38:04;;;;;;;6.45;1.60;;;;;;;-148.88;85.60;77024.59;5096453;28;20039;-79
2023/03/04 04:40:30;;;;;;;17.73;2.33;;;;;;;-148.88;85.36;77024.59;5077597;28;20028;-79
2023/03/04 04:42:55;;;;;;;4.75;1.23;;;;;;;-148.88;84.58;77002.22;5078078;28;20124;-80
2023/03/04 04:45:23;;;;;;;6.32;1.30;;;;;;;-148.88;84.58;77016.47;5078442;28;20055;-80
2023/03/04 04:47:49;;;;;;;7.40;1.67;;;;;;;-148.88;84.07;76969.72;5108275;22;20028;-85
2023/03/04 04:50:15;;;;;;;6.03;1.50;;;;;;;-148.88;83.46;76975.81;5076402;28;20030;-85
2023/03/04 04:52:40;;;;;;;13.70;1.77;;;;;;;-148.88;84.36;77004.25;5094730;28;20024;-86
2023/03/04 04:55:06;;;;;;;5.63;1.48;;;;;;;-148.88;84.11;76983.94;5095031;28;20027;-85
2023/03/04 04:57:32;;;;;;;6.15;1.95;;;;;;;-148.88;84.09;76977.84;5094464;28;20130;-85
2023/03/04 04:59:57;;;;;;;10.32;2.13;;;;;;;-148.88;84.75;76998.16;5076221;28;20050;-85
2023/03/04 05:02:23;;;;;;;11.13;1.85;;;;;;;-148.88;84.77;77008.34;5076339;28;20486;-85
2023/03/04 05:04:48;;;;;;;13.73;3.22;;;;;;;-148.88;85.48;77012.41;5094755;28;20160;-85
2023/03/04 05:07:13;;;;;;;9.13;1.83;;;;;;;-148.88;85.83;77044.91;5094702;28;20486;-85
2023/03/04 05:09:39;;;;;;;13.18;2.17;;;;;;;-148.88;85.88;77032.72;5076757;28;20402;-85
2023/03/04 05:12:04;;;;;;;12.50;2.03;;;;;;;-148.88;85.45;77000.19;5077095;28;20038;-84
2023/03/04 05:14:29;;;;;;;12.35;2.65;;;;;;;-148.88;85.69;77000.19;5094754;28;20046;-84
2023/03/04 05:16:55;;;;;;;5.28;2.17;;;;;;;-148.88;85.32;76983.94;5094223;28;20103;-85
2023/03/04 05:19:20;;;;;;;6.65;1.90;;;;;;;-148.88;88.08;77065.22;5094841;28;20075;-84
2023/03/04 05:21:45;;;;;;;4.50;1.60;;;;;;;-148.88;87.50;77002.22;5094661;28;20395;-85
2023/03/04 05:24:11;;;;;;;8.98;2.10;;;;;;;-148.88;86.58;76994.09;5076228;28;20028;-85
2023/03/04 05:26:36;;;;;;;5.75;1.83;;;;;;;-148.88;88.26;77044.91;5093995;28;20454;-85
2023/03/04 05:29:02;;;;;;;7.82;2.00;;;;;;;-148.88;89.71;77044.91;5094359;28;20031;-85
2023/03/04 05:31:27;;;;;;;6.85;2.28;;;;;;;-148.88;89.25;77032.72;5077666;28;20069;-85
2023/03/04 05:33:52;;;;;;;14.93;1.95;;;;;;;-148.88;89.41;77032.72;5076969;28;20566;-85
2023/03/04 05:36:18;;;;;;;12.32;2.10;;;;;;;-148.88;88.37;76990.03;5076275;28;20016;-85
2023/03/04 05:38:43;;;;;;;9.32;2.00;;;;;;;-148.88;86.91;76967.69;5075840;28;20023;-86
2023/03/04 05:41:08;;;;;;;2.75;1.48;;;;;;;-148.88;87.58;76965.66;5075683;28;20047;-86
2023/03/04 05:43:35;;;;;;;5.80;1.75;;;;;;;-148.88;88.43;77000.19;5093760;28;20024;-86
2023/03/04 05:46:01;;;;;;;13.05;2.30;;;;;;;-148.88;89.14;76990.03;5075734;28;20115;-87
2023/03/04 05:48:27;;;;;;;9.48;2.13;;;;;;;-148.88;88.98;76977.84;5093468;28;20031;-86
2023/03/04 05:50:58;;;;;;;6.55;1.83;;;;;;;-148.88;89.12;76963.63;5093753;28;20023;-86
2023/03/04 05:53:23;;;;;;;8.77;1.80;;;;;;;-148.88;88.79;76965.66;5075580;28;20020;-86
2023/03/04 05:55:49;;;;;;;7.03;1.80;;;;;;;-148.88;90.90;77008.34;5075862;28;20103;-85
2023/03/04 05:58:15;;;;;;;9.80;2.00;;;;;;;-148.88;90.02;76963.63;5076164;28;20016;-85
2023/03/04 06:00:41;;;;;;;13.20;2.20;;;;;;;-148.88;90.38;76988.00;5076944;28;20424;-85
2023/03/04 06:03:06;;;;;;;10.50;1.90;;;;;;;-148.88;91.17;76992.06;5095123;28;20475;-84
2023/03/04 06:05:31;;;;;;;10.90;1.85;;;;;;;-148.88;92.39;76998.16;5094468;28;20024;-84
2023/03/04 06:07:56;;;;;;;12.50;2.03;;;;;;;-148.88;92.31;77016.47;5075195;28;20024;-84
2023/03/04 06:10:22;;;;;;;8.85;1.77;;;;;;;-148.88;92.73;77032.72;5076253;28;20419;-84
2023/03/04 06:12:47;;;;;;;9.75;1.65;;;;;;;-148.88;91.17;76971.75;5095306;28;20023;-84
2023/03/04 06:15:12;;;;;;;7.95;1.67;;;;;;;-148.88;93.10;77012.41;5094632;28;20162;-84
2023/03/04 06:17:39;;;;;;;12.93;2.00;;;;;;;-148.88;91.96;77016.47;5075746;28;20032;-86
2023/03/04 06:20:05;;;;;;;7.13;1.95;;;;;;;-148.88;92.97;77000.19;5093242;28;20024;-86
2023/03/04 06:22:31;;;;;;;8.63;2.03;;;;;;;-148.88;92.50;77014.44;5075807;28;20446;-87
2023/03/04 06:24:58;;;;;;;11.60;2.22;;;;;;;-148.88;92.56;76988.00;5093377;28;20048;-86
2023/03/04 06:27:23;;;;;;;8.77;1.85;;;;;;;-148.88;92.01;77016.47;5093365;28;20030;-84
2023/03/04 06:29:48;;;;;;;9.15;2.03;;;;;;;-148.88;92.33;77018.50;5093286;28;20482;-87
2023/03/04 06:32:14;;;;;;;8.15;1.98;;;;;;;-148.88;91.06;76971.75;5093096;28;20111;-87
2023/03/04 06:34:39;;;;;;;5.85;2.08;;;;;;;-148.88;90.70;76979.88;5092873;28;20032;-85
2023/03/04 06:37:04;;;;;;;11.95;2.28;;;;;;;-148.88;90.94;76977.84;5093356;28;20024;-86
2023/03/04 06:39:29;;;;;;;7.63;1.98;;;;;;;-148.88;91.92;77002.22;5092745;28;20047;-86
2023/03/04 06:41:55;;;;;;;6.38;1.73;;;;;;;-148.88;92.11;77018.50;5074462;28;20027;-86
2023/03/04 06:44:20;;;;;;;13.02;2.65;;;;;;;-148.88;92.48;77012.41;5074445;28;20436;-86
2023/03/04 06:46:45;;;;;;;9.10;2.72;;;;;;;-148.88;91.65;76971.75;5092853;28;20020;-87
2023/03/04 06:49:10;;;;;;;11.48;1.95;;;;;;;-148.88;92.43;76977.84;5093239;28;20578;-85
2023/03/04 06:51:36;;;;;;;12.52;2.42;;;;;;;-148.88;91.66;76983.94;5074828;28;20047;-85
2023/03/04 06:54:01;;;;;;;7.72;2.28;;;;;;;-148.88;91.70;76973.78;5079640;28;20039;-86
2023/03/04 06:56:26;;;;;;;6.28;2.38;;;;;;;-148.88;91.42;76971.75;5095767;28;20028;-87
2023/03/04 06:58:52;;;;;;;11.43;2.65;;;;;;;-148.88;91.26;76963.63;5092802;28;20024;-87
2023/03/04 07:01:25;;;;;;;6.15;2.22;;;;;;;-148.88;91.63;76992.06;5094412;28;20103;-87
2023/03/04 07:03:51;;;;;;;8.68;1.73;;;;;;;-148.88;91.54;76985.97;5096431;28;20026;-87
2023/03/04 07:06:19;;;;;;;6.65;1.83;;;;;;;-148.88;91.83;76983.94;5098675;28;20161;-87
2023/03/04 07:08:45;;;;;;;9.27;1.85;;;;;;;-148.88;91.36;76961.59;5079169;28;20055;-87
2023/03/04 07:11:10;;;;;;;8.93;1.90;;;;;;;-148.88;91.21;76941.28;5097070;28;20020;-86
2023/03/04 07:13:38;;;;;;;5.45;2.13;;;;;;;-148.88;90.94;76951.44;5078425;28;20505;-87
2023/03/04 07:16:09;;;;;;;6.22;1.80;;;;;;;-148.88;92.26;76977.84;5096769;28;20038;-87
2023/03/04 07:18:38;;;;;;;5.40;1.60;;;;;;;-148.88;91.15;76955.50;5096588;28;20028;-87
2023/03/04 07:21:05;;;;;;;6.38;2.03;;;;;;;-148.88;92.47;76994.09;5097313;28;20107;-87
2023/03/04 07:23:31;;;;;;;8.43;1.88;;;;;;;-148.88;91.61;76957.53;5096260;28;20483;-87
2023/03/04 07:25:56;;;;;;;5.85;1.40;;;;;;;-148.88;90.42;76914.88;5096653;28;20074;-87
2023/03/04 07:28:22;;;;;;;6.38;1.83;;;;;;;-148.88;88.65;76898.63;5096300;28;20103;-87
2023/03/04 07:30:47;;;;;;;5.47;1.80;;;;;;;-148.88;89.61;76961.59;5078053;28;20046;-86
2023/03/04 07:33:13;;;;;;;8.05;1.65;;;;;;;-148.88;88.76;76884.38;5078281;28;20020;-85
2023/03/04 07:35:39;;;;;;;5.63;1.52;;;;;;;-148.88;89.14;76906.75;5096233;28;20024;-86
2023/03/04 07:38:04;;;;;;;8.68;1.50;;;;;;;-148.88;90.03;76931.13;5096644;28;20103;-86
2023/03/04 07:40:30;;;;;;;4.57;1.70;;;;;;;-148.88;91.05;76951.44;5078102;28;20012;-86
2023/03/04 07:42:56;;;;;;;5.78;1.85;;;;;;;-148.88;92.06;76967.69;5078705;28;20031;-86
2023/03/04 07:45:22;;;;;;;11.52;2.08;;;;;;;-148.88;92.14;76971.75;5078793;28;20032;-87
2023/03/04 07:47:47;;;;;;;5.28;2.25;;;;;;;-148.88;92.00;76953.47;5096114;28;20043;-86
2023/03/04 07:50:14;;;;;;;7.75;2.17;;;;;;;-148.88;92.11;76967.69;5096024;28;20393;-87
2023/03/04 07:52:46;;;;;;;6.78;1.67;;;;;;;-148.88;91.14;76939.25;5096620;28;20390;-87
2023/03/04 07:55:14;;;;;;;9.07;2.20;;;;;;;-148.88;89.57;76878.28;5078882;28;20440;-87
2023/03/04 07:57:43;;;;;;;5.50;1.63;;;;;;;-148.88;89.67;76898.63;5097622;28;20496;-87
2023/03/04 08:00:10;;;;;;;10.75;1.92;;;;;;;-148.88;92.04;76935.19;5077716;28;20021;-87
2023/03/04 08:02:35;;;;;;;9.43;1.67;;;;;;;-148.88;93.58;76955.50;5077597;28;20028;-87
2023/03/04 08:05:00;;;;;;;12.75;2.03;;;;;;;-148.88;94.37;76951.44;5096021;28;20020;-86
2023/03/04 08:07:28;;;;;;;9.55;2.40;;;;;;;-148.88;95.49;76957.53;5086101;28;20031;-87
2023/03/04 08:09:53;;;;;;;9.52;2.42;;;;;;;-148.88;95.42;76963.63;5080277;28;20020;-85
2023/03/04 08:12:19;;;;;;;12.60;2.20;;;;;;;-148.88;96.17;76955.50;5096044;28;20035;-85
2023/03/04 08:14:44;;;;;;;7.75;2.08;;;;;;;-148.88;96.47;76975.81;5094602;28;20032;-87
2023/03/04 08:17:10;;;;;;;8.43;1.88;;;;;;;-148.88;96.88;76961.59;5095788;28;20154;-85
2023/03/04 08:19:35;;;;;;;10.40;2.00;;;;;;;-148.88;96.57;76957.53;5095720;28;20019;-85
2023/03/04 08:22:02;;;;;;;11.73;2.88;;;;;;;-148.88;96.63;76947.38;5077320;28;20023;-85
2023/03/04 08:24:45;;;;;;;10.07;2.28;;;;;;;-148.88;96.22;76918.94;5080093;28;20024;-85
2023/03/04 08:27:11;;;;;;;6.15;2.22;;;;;;;-148.88;96.23;76935.19;5095837;28;20020;-86
2023/03/04 08:29:36;;;;;;;6.22;2.05;;;;;;;-148.88;95.92;76925.03;5095167;28;20051;-86
2023/03/04 08:32:01;;;;;;;6.00;2.05;;;;;;;-148.88;96.67;76949.41;5095159;28;20028;-86
2023/03/04 08:34:27;;;;;;;9.40;2.55;;;;;;;-148.88;94.89;76906.75;5095557;28;20103;-87
2023/03/04 08:36:53;;;;;;;7.85;2.08;;;;;;;-148.88;94.68;76910.81;5077478;28;20024;-86
2023/03/04 08:39:18;;;;;;;9.68;2.97;;;;;;;-148.88;96.45;76951.44;5077306;28;20458;-85
2023/03/04 08:41:53;;;;;;;8.48;2.00;;;;;;;-148.88;96.50;76945.34;5099292;28;20545;-86
2023/03/04 08:44:18;;;;;;;7.05;2.22;;;;;;;-148.88;96.62;76931.13;5076941;28;20016;-86
2023/03/04 08:46:44;;;;;;;9.13;2.13;;;;;;;-148.88;95.62;76906.75;5076535;28;20053;-85
2023/03/04 08:49:14;;;;;;;12.40;3.88;;;;;;;-148.88;94.69;76880.31;5095245;28;20028;-84
2023/03/04 08:51:40;;;;;;;7.97;2.28;;;;;;;-148.88;95.10;76900.66;5095564;28;20031;-86
2023/03/04 08:54:05;;;;;;;6.50;2.20;;;;;;;-148.88;96.52;76955.50;5094667;28;20024;-85
2023/03/04 08:56:31;;;;;;;5.75;2.15;;;;;;;-148.88;96.13;76927.06;5094690;28;20384;-86
2023/03/04 08:58:57;;;;;;;6.13;2.40;;;;;;;-148.88;97.02;76931.13;5094401;28;20027;-86
2023/03/04 09:01:22;;;;;;;7.82;2.20;;;;;;;-148.88;95.83;76920.97;5094990;28;20031;-86
2023/03/04 09:03:47;;;;;;;9.40;2.30;;;;;;;-148.88;96.18;76918.94;5076966;28;20019;-86
2023/03/04 09:06:15;;;;;;;7.22;3.00;;;;;;;-148.88;97.87;76945.34;5095082;28;20110;-86
2023/03/04 09:08:41;;;;;;;7.10;2.75;;;;;;;-148.88;96.76;76892.53;5094929;28;20103;-84
2023/03/04 09:11:06;;;;;;;5.82;3.15;;;;;;;-148.88;97.45;76882.34;5094700;28;20062;-85
2023/03/04 09:13:32;;;;;;;14.20;2.95;;;;;;;-148.88;98.46;76914.88;5094942;28;20031;-85
2023/03/04 09:15:57;;;;;;;12.40;3.15;;;;;;;-148.88;98.53;76884.38;5094769;28;20073;-85
2023/03/04 09:18:24;;;;;;;12.20;2.65;;;;;;;-148.88;98.55;76902.69;5076707;28;20118;-84
2023/03/04 09:20:49;;;;;;;12.02;3.55;;;;;;;-148.88;99.49;76937.22;5076074;28;20066;-84
2023/03/04 09:23:15;;;;;;;8.45;2.47;;;;;;;-148.88;100.00;76971.75;5095088;28;20056;-85
2023/03/04 09:25:42;;;;;;;8.05;2.95;;;;;;;-148.88;100.00;77002.22;5094656;28;20103;-85
2023/03/04 09:28:08;;;;;;;12.25;2.80;;;;;;;-148.88;100.00;76983.94;5094509;28;20090;-86
2023/03/04 09:30:34;;;;;;;8.43;2.35;;;;;;;-148.88;100.00;76951.44;5076474;28;20028;-85
2023/03/04 09:33:00;;;;;;;10.02;2.67;;;;;;;-148.88;100.00;76939.25;5094596;28;20482;-85
2023/03/04 09:35:26;;;;;;;8.75;2.53;;;;;;;-148.88;99.98;76902.69;5094499;28;20397;-86
2023/03/04 09:37:52;;;;;;;7.55;3.00;;;;;;;-148.88;99.87;76902.69;5094347;28;20486;-83
2023/03/04 09:40:20;;;;;;;6.60;2.85;;;;;;;-148.88;99.38;76906.75;5094731;28;20471;-85
2023/03/04 09:42:49;;;;;;;7.75;3.38;;;;;;;-148.88;100.00;76902.69;5096193;28;20020;-86
2023/03/04 09:45:19;;;;;;;7.93;2.08;;;;;;;-148.88;99.55;76900.66;5094221;28;20043;-86
2023/03/04 09:47:47;;;;;;;5.82;2.60;;;;;;;-148.88;98.45;76896.59;5094411;28;20094;-86
2023/03/04 09:50:13;;;;;;;4.45;2.00;;;;;;;-148.88;98.16;76866.09;5094117;28;20434;-87
2023/03/04 09:52:54;;;;;;;5.50;1.92;;;;;;;-148.88;95.91;76833.59;5094501;28;20085;-85
2023/03/04 09:55:39;;;;;;;5.28;1.92;;;;;;;-148.88;95.47;76809.22;5077152;28;20024;-85
2023/03/04 09:58:25;;;;;;;4.05;2.05;;;;;;;-148.88;95.46;76813.28;5094127;28;20156;-86
2023/03/04 10:00:55;;;;;;;5.40;1.88;;;;;;;-148.88;94.89;76772.66;5094556;28;20316;-85
2023/03/04 10:03:41;;;;;;;7.05;1.83;;;;;;;-148.88;94.64;76813.28;5094490;28;20331;-86
2023/03/04 10:06:12;;;;;;;4.35;1.88;;;;;;;-148.88;96.11;76756.41;5076590;28;20053;-86
2023/03/04 10:08:44;;;;;;;6.32;1.67;;;;;;;-148.88;96.43;76813.28;5076449;28;20470;-86
2023/03/04 10:11:31;;;;;;;3.97;1.52;;;;;;;-148.88;100.00;76862.03;5094587;28;20475;-85
2023/03/04 10:14:03;;;;;;;3.38;1.70;;;;;;;-148.88;100.00;76841.72;5094415;28;20035;-86
2023/03/04 10:16:35;;;;;;;3.90;1.67;;;;;;;-148.88;100.00;76849.84;5076505;28;20020;-86
2023/03/04 10:19:29;;;;;;;3.53;1.75;;;;;;;-148.88;100.00;76882.34;5094989;28;20095;-85
2023/03/04 10:21:54;;;;;;;5.20;1.70;;;;;;;-148.88;100.00;76896.59;5057975;28;20196;-86
2023/03/04 10:24:23;;;;;;;3.90;1.67;;;;;;;-148.88;100.00;76882.34;5094583;28;20052;-84
2023/03/04 10:26:56;;;;;;;6.47;2.47;;;;;;;-148.88;100.00;76906.75;5094249;28;20051;-85
2023/03/04 10:29:23;;;;;;;5.50;2.47;;;;;;;-148.88;100.00;76916.91;5094769;28;20160;-84
2023/03/04 10:31:49;;;;;;;4.38;2.10;;;;;;;-148.88;100.00;76902.69;5093831;28;20058;-85
2023/03/04 10:34:16;;;;;;;6.80;2.80;;;;;;;-148.88;100.00;76910.81;5093899;28;20020;-85
2023/03/04 10:37:01;;;;;;;6.15;2.70;;;;;;;-148.88;100.00;76851.88;5093486;28;20038;-86
2023/03/04 10:39:42;;;;;;;4.50;2.58;;;;;;;-148.88;100.00;76898.63;5093663;28;20024;-83
2023/03/04 10:42:13;;;;;;;5.10;2.33;;;;;;;-148.88;100.00;76904.72;5075847;28;20496;-83
2023/03/04 10:44:50;;;;;;;6.35;2.83;;;;;;;-148.88;100.00;76857.97;5093742;28;20445;-85
2023/03/04 10:47:15;;;;;;;5.13;2.10;;;;;;;-148.88;100.00;76862.03;5095522;28;20048;-84
2023/03/04 10:49:52;;;;;;;7.88;2.17;;;;;;;-148.88;100.00;76855.94;5094012;28;20111;-85
2023/03/04 10:52:27;;;;;;;7.18;1.88;;;;;;;-148.88;100.00;76870.16;5075715;28;20020;-85
2023/03/04 10:54:56;;;;;;;6.75;1.27;;;;;;;-148.88;100.00;76884.38;5074803;28;20020;-85
2023/03/04 10:57:36;;;;;;;8.02;1.45;;;;;;;-148.88;100.00;76857.97;5075487;28;20027;-85
2023/03/04 11:00:16;;;;;;;6.22;1.45;;;;;;;-148.88;99.73;76860.00;5092821;28;20016;-85
2023/03/04 11:02:43;;;;;;;4.93;1.40;;;;;;;-148.88;98.26;76853.91;5093111;28;20028;-85
2023/03/04 11:05:08;;;;;;;9.68;1.58;;;;;;;-148.88;97.63;76866.09;5093025;28;20031;-84
2023/03/04 11:07:53;;;;;;;4.63;1.25;;;;;;;-148.88;98.38;76839.69;5075630;28;20028;-84
2023/03/04 11:10:42;;;;;;;5.93;1.63;;;;;;;-148.88;98.50;76855.94;5075785;28;20026;-85
2023/03/04 11:13:10;;;;;;;4.80;1.38;;;;;;;-148.88;97.41;76835.63;5093559;28;20028;-85
2023/03/04 11:15:52;;;;;;;11.50;1.40;;;;;;;-148.88;97.34;76862.03;5075927;28;20028;-85
2023/03/04 11:18:42;;;;;;;4.60;1.20;;;;;;;-148.88;98.21;76882.34;5075552;28;20043;-84